Search for airport 
image banner adimage banner adimage banner ad
image banner ad

U74 - Crescent Valley

Located in Crescent Valley, United States

ICAO - U74, IATA -

Data provided by Airmate  

General information

Coordinates: N40°24'57" W116°33'49"
Elevation is 4791 feet MSL.
Magnetic variation is 16° East
View others Airports in Nevada

Operational data

Special qualification required
Current time UTC:
Current local time:
Weather at : KBAM - Battle Mountain ( 33 km )
METAR: KBAM 131135Z AUTO 00000KT 10SM CLR 08/M02 A2999 RMK AO1
View NOTAMs / SUP AIP / TFR affecting this airport [VIEW]
Communications frequencies: [VIEW]

Runways:

RWY identifierQFULength (ft)Width (ft)SurfaceLDA (ft)
0570°542460EARTH
23250°542460EARTH
14152°465075EARTH
32332°465075EARTH

Airport contact information

Address: Crescent Valley United States

Satellite view of U74